Time;durP1;ratioP1;P1;durP2;ratioP2;P2;SDS_P1;SDS_P2;PMS_P1;PMS_P2;Temp;Humidity;BMP_temperature;BMP_pressure;BME280_temperature;BME280_humidity;BME280_pressure;Samples;Min_cycle;Max_cycle;Signal;HPM_P1;HPM_P2
2022/08/28 00:00:40;;;;;;;0.28;0.28;;;;;;;20.19;51.53;101171.25;5172900;28;20142;-79
2022/08/28 00:03:12;;;;;;;0.20;0.20;;;;;;;20.23;51.26;101166.59;5154715;28;20578;-79
2022/08/28 00:05:43;;;;;;;0.40;0.40;;;;;;;20.20;51.21;101169.47;5169465;28;20033;-80
2022/08/28 00:08:15;;;;;;;0.68;0.68;;;;;;;20.12;51.55;101173.41;5175519;28;20049;-78
2022/08/28 00:10:46;;;;;;;0.20;0.20;;;;;;;20.09;51.20;101176.28;5168753;28;20052;-78
2022/08/28 00:13:20;;;;;;;0.65;0.65;;;;;;;20.10;51.32;101177.13;5152591;28;20093;-78
2022/08/28 00:15:54;;;;;;;1.45;0.85;;;;;;;20.09;51.38;101176.28;5152987;28;20030;-79
2022/08/28 00:18:27;;;;;;;0.30;0.30;;;;;;;20.00;51.97;101175.97;5153749;28;20041;-79
2022/08/28 00:20:58;;;;;;;0.20;0.20;;;;;;;20.03;51.60;101178.44;5141946;28;20072;-78
2022/08/28 00:23:31;;;;;;;0.30;0.30;;;;;;;19.99;51.73;101172.44;5149561;28;20582;-79
2022/08/28 00:26:02;;;;;;;0.47;0.47;;;;;;;19.99;51.88;101179.59;5185615;28;20398;-79
2022/08/28 00:28:33;;;;;;;0.75;0.75;;;;;;;19.96;51.81;101180.59;5155147;28;20049;-79
2022/08/28 00:31:04;;;;;;;0.57;0.57;;;;;;;19.97;51.88;101187.66;5153491;28;20510;-77
2022/08/28 00:33:35;;;;;;;0.40;0.40;;;;;;;19.87;52.15;101191.84;5184936;28;20022;-77
2022/08/28 00:36:14;;;;;;;2.60;0.63;;;;;;;19.88;51.88;101193.53;5175193;28;20066;-79
2022/08/28 00:38:45;;;;;;;0.40;0.38;;;;;;;19.89;51.79;101190.78;5182508;28;20050;-78
2022/08/28 00:41:15;;;;;;;0.65;0.50;;;;;;;19.91;51.57;101188.91;5196225;28;20030;-79
2022/08/28 00:43:48;;;;;;;1.13;0.60;;;;;;;19.90;51.77;101180.97;5166600;28;20125;-79
2022/08/28 00:46:22;;;;;;;0.20;0.20;;;;;;;19.92;51.66;101181.75;5167571;28;20076;-78
2022/08/28 00:48:53;;;;;;;0.28;0.28;;;;;;;19.89;51.71;101189.91;5138862;28;20056;-78
2022/08/28 00:54:13;;;;;;;0.20;0.20;;;;;;;19.83;51.65;101196.44;5150328;28;20045;-78
2022/08/28 00:56:46;;;;;;;0.77;0.77;;;;;;;19.84;51.72;101198.13;5157171;28;20431;-79
2022/08/28 00:59:19;;;;;;;0.63;0.63;;;;;;;19.82;51.54;101200.91;5187335;28;20045;-78
2022/08/28 01:01:55;;;;;;;0.20;0.20;;;;;;;19.73;51.99;101200.59;5181635;28;20061;-79
2022/08/28 01:04:28;;;;;;;0.30;0.30;;;;;;;19.72;52.26;101206.84;5140597;28;20101;-78
2022/08/28 01:07:22;;;;;;;0.20;0.20;;;;;;;19.75;51.72;101212.84;5167883;28;20064;-78
2022/08/28 01:09:53;;;;;;;0.35;0.35;;;;;;;19.71;51.83;101215.78;5157507;28;20038;-79
2022/08/28 01:12:28;;;;;;;0.30;0.30;;;;;;;19.71;51.92;101208.63;5149689;28;20021;-79
2022/08/28 01:15:08;;;;;;;0.50;0.50;;;;;;;19.73;51.72;101213.91;5153804;28;20037;-79
2022/08/28 01:17:45;;;;;;;0.57;0.57;;;;;;;19.68;51.90;101211.50;5164438;28;20050;-78
2022/08/28 01:20:20;;;;;;;0.63;0.63;;;;;;;19.67;51.72;101213.28;5139947;28;20026;-80
2022/08/28 01:23:10;;;;;;;0.30;0.30;;;;;;;19.63;51.93;101217.09;5180733;28;20042;-80
2022/08/28 01:25:41;;;;;;;0.88;0.77;;;;;;;19.58;52.28;101218.28;5152664;28;20121;-79
2022/08/28 01:28:13;;;;;;;0.20;0.20;;;;;;;19.60;51.82;101224.38;5190447;28;20030;-77
2022/08/28 01:30:49;;;;;;;0.68;0.60;;;;;;;19.57;51.80;101219.22;5177293;28;20038;-80
2022/08/28 01:33:20;;;;;;;0.52;0.52;;;;;;;19.54;51.79;101230.91;5169751;28;20056;-79
2022/08/28 01:35:51;;;;;;;0.30;0.30;;;;;;;19.55;51.77;101223.78;5154315;28;20260;-79
2022/08/28 01:38:21;;;;;;;0.50;0.50;;;;;;;19.52;52.01;101223.97;5187128;28;20050;-79
2022/08/28 01:40:53;;;;;;;0.35;0.35;;;;;;;19.52;51.64;101223.97;5202464;28;20022;-79
2022/08/28 01:43:26;;;;;;;0.50;0.50;;;;;;;19.50;52.19;101226.72;5202962;28;20050;-79
2022/08/28 01:46:16;;;;;;;0.30;0.30;;;;;;;19.50;51.77;101221.41;5161163;28;20037;-79
2022/08/28 01:48:48;;;;;;;0.60;0.60;;;;;;;19.50;51.87;101226.72;5172849;28;20069;-80
2022/08/28 01:51:18;;;;;;;0.80;0.80;;;;;;;19.52;52.02;101226.63;5153853;28;20114;-80
2022/08/28 01:53:49;;;;;;;0.60;0.60;;;;;;;19.50;51.80;101226.72;5172235;28;20499;-81
2022/08/28 01:56:19;;;;;;;0.32;0.32;;;;;;;19.40;52.22;101229.03;5173048;28;20343;-80
2022/08/28 01:58:51;;;;;;;0.73;0.63;;;;;;;19.43;52.19;101226.22;5153335;28;20410;-81
2022/08/28 02:01:21;;;;;;;0.65;0.65;;;;;;;19.41;51.98;101225.44;5183890;28;20072;-80
2022/08/28 02:03:52;;;;;;;0.52;0.52;;;;;;;19.44;51.84;101225.28;5145179;28;20096;-81
2022/08/28 02:06:24;;;;;;;0.75;0.75;;;;;;;19.46;51.99;101219.84;5169017;28;20533;-78
2022/08/28 02:08:55;;;;;;;0.28;0.28;;;;;;;19.42;51.83;101224.50;5149056;28;20072;-77
2022/08/28 02:11:28;;;;;;;0.68;0.68;;;;;;;19.38;52.02;101222.94;5175260;28;20445;-78
2022/08/28 02:14:00;;;;;;;1.25;1.00;;;;;;;19.40;51.77;101221.06;5175507;28;20072;-78
2022/08/28 02:16:31;;;;;;;0.75;0.65;;;;;;;19.33;52.03;101222.34;5184630;28;20073;-78
2022/08/28 02:19:02;;;;;;;0.98;0.38;;;;;;;19.34;51.81;101227.56;5182821;28;20544;-81
2022/08/28 02:21:34;;;;;;;1.60;1.50;;;;;;;19.34;51.69;101237.38;5160079;28;20057;-80
2022/08/28 02:24:05;;;;;;;0.38;0.38;;;;;;;19.34;51.80;101248.00;5161706;28;20096;-79
2022/08/28 02:26:36;;;;;;;0.70;0.70;;;;;;;19.29;52.25;101250.91;5179942;28;20039;-79
2022/08/28 02:29:11;;;;;;;0.50;0.50;;;;;;;19.28;51.90;101248.34;5187590;28;20201;-80
2022/08/28 02:31:41;;;;;;;0.25;0.25;;;;;;;19.25;51.73;101251.19;5139357;28;20030;-80
2022/08/28 02:34:12;;;;;;;2.63;1.27;;;;;;;19.24;51.91;101258.31;5171147;28;20030;-79
2022/08/28 02:36:42;;;;;;;0.68;0.68;;;;;;;19.26;51.62;101261.72;5162459;28;20038;-80
2022/08/28 02:39:13;;;;;;;1.45;1.25;;;;;;;19.23;51.79;101255.72;5164998;28;20046;-80
2022/08/28 02:41:44;;;;;;;1.25;1.10;;;;;;;19.19;51.86;101250.59;5172385;28;20030;-80
2022/08/28 02:44:16;;;;;;;0.45;0.45;;;;;;;19.18;52.01;101255.97;5156505;28;20049;-80
2022/08/28 02:46:46;;;;;;;0.75;0.68;;;;;;;19.13;52.01;101260.69;5156006;28;20026;-80
2022/08/28 02:49:17;;;;;;;0.50;0.50;;;;;;;19.13;51.99;101261.53;5160124;28;20060;-80
2022/08/28 02:51:48;;;;;;;0.73;0.73;;;;;;;19.10;51.81;101256.41;5181868;28;20038;-80
2022/08/28 02:54:18;;;;;;;0.20;0.20;;;;;;;19.08;52.19;101268.06;5154365;28;20037;-80
2022/08/28 02:56:49;;;;;;;0.30;0.30;;;;;;;19.06;51.96;101259.31;5183205;28;20034;-80
2022/08/28 02:59:20;;;;;;;0.60;0.60;;;;;;;19.03;52.44;101263.84;5150063;28;20037;-79
2022/08/28 03:02:03;;;;;;;1.25;0.43;;;;;;;19.01;52.04;101271.03;5180449;28;20542;-79
2022/08/28 03:04:39;;;;;;;0.68;0.68;;;;;;;19.01;51.94;101267.53;5158819;28;20033;-78
2022/08/28 03:07:12;;;;;;;0.60;0.60;;;;;;;18.93;52.26;101257.31;5177239;28;20092;-80
2022/08/28 03:09:57;;;;;;;0.75;0.75;;;;;;;18.91;52.10;101271.59;5168966;28;20076;-80
2022/08/28 03:12:29;;;;;;;0.30;0.30;;;;;;;18.88;52.41;101272.63;5148727;28;20119;-80
2022/08/28 03:14:59;;;;;;;0.60;0.60;;;;;;;18.84;52.12;101274.59;5169057;28;20542;-80
2022/08/28 03:17:30;;;;;;;0.70;0.70;;;;;;;18.84;52.23;101282.56;5163500;28;20030;-80
2022/08/28 03:20:11;;;;;;;1.35;1.25;;;;;;;18.82;52.15;101276.47;5183794;28;20038;-80
2022/08/28 03:25:32;;;;;;;0.50;0.50;;;;;;;18.78;52.21;101277.56;5147757;28;20111;-80
2022/08/28 03:28:03;;;;;;;0.98;0.68;;;;;;;18.74;52.30;101273.34;5168802;28;20097;-80
2022/08/28 03:30:41;;;;;;;0.82;0.70;;;;;;;18.77;51.89;101277.63;5169433;28;20631;-80
2022/08/28 03:33:11;;;;;;;2.58;1.10;;;;;;;18.63;53.34;101276.56;5156474;28;20064;-78
2022/08/28 03:35:42;;;;;;;0.40;0.40;;;;;;;18.63;52.63;101284.53;5173435;28;20856;-78
2022/08/28 03:38:13;;;;;;;0.65;0.65;;;;;;;18.61;52.58;101280.25;5155387;28;20042;-78
2022/08/28 03:40:45;;;;;;;0.63;0.63;;;;;;;18.59;52.33;101276.81;5158097;28;20061;-79
2022/08/28 03:43:19;;;;;;;0.32;0.32;;;;;;;18.57;52.67;101279.56;5164324;28;20044;-79
2022/08/28 03:45:56;;;;;;;3.60;0.93;;;;;;;18.54;52.60;101282.38;5173767;28;20028;-79
2022/08/28 03:48:30;;;;;;;0.47;0.32;;;;;;;18.50;52.37;101281.66;5151869;28;20671;-79
2022/08/28 03:51:11;;;;;;;0.75;0.52;;;;;;;18.48;52.19;101280.03;5169096;28;20030;-79
2022/08/28 03:53:42;;;;;;;0.30;0.30;;;;;;;18.44;52.56;101287.31;5145760;28;20407;-78
2022/08/28 03:56:17;;;;;;;1.20;0.52;;;;;;;18.44;52.16;101287.31;5173393;28;20145;-81
2022/08/28 03:58:56;;;;;;;1.73;1.42;;;;;;;18.43;52.37;101295.34;5204237;28;20722;-80
2022/08/28 04:01:27;;;;;;;0.65;0.65;;;;;;;18.39;52.47;101291.97;5182441;28;20087;-77
2022/08/28 04:03:57;;;;;;;9.52;1.45;;;;;;;18.37;52.36;101297.38;5159580;28;20125;-79
2022/08/28 04:06:28;;;;;;;0.47;0.47;;;;;;;18.36;52.72;101292.16;5191408;28;20095;-79
2022/08/28 04:08:59;;;;;;;0.40;0.40;;;;;;;18.34;52.63;101291.34;5181859;28;20053;-79
2022/08/28 04:11:30;;;;;;;0.43;0.43;;;;;;;18.30;52.52;101295.97;5166861;28;20042;-80
2022/08/28 04:14:00;;;;;;;0.88;0.88;;;;;;;18.28;52.79;101303.16;5185785;28;20044;-79
2022/08/28 04:16:31;;;;;;;0.30;0.30;;;;;;;18.24;52.67;101299.78;5175487;28;20061;-79
2022/08/28 04:19:05;;;;;;;0.52;0.52;;;;;;;18.21;52.70;101307.94;5188431;28;20045;-79
2022/08/28 04:21:38;;;;;;;1.17;1.10;;;;;;;18.19;52.82;101312.44;5174691;28;20035;-81
2022/08/28 04:24:12;;;;;;;0.20;0.20;;;;;;;18.18;52.57;101315.19;5175397;28;20074;-81
2022/08/28 04:26:42;;;;;;;4.95;0.70;;;;;;;18.14;53.00;101313.59;5169503;28;20556;-78
2022/08/28 04:29:14;;;;;;;0.85;0.52;;;;;;;18.15;52.91;101315.34;5169963;28;20042;-78
2022/08/28 04:31:45;;;;;;;0.60;0.60;;;;;;;18.12;52.91;101321.66;5164726;28;20061;-81
2022/08/28 04:34:16;;;;;;;5.63;1.85;;;;;;;18.14;52.85;101318.91;5150528;28;20643;-81
2022/08/28 04:36:50;;;;;;;0.55;0.55;;;;;;;18.05;53.58;101320.25;5183208;28;20029;-80
2022/08/28 04:39:22;;;;;;;1.23;1.13;;;;;;;18.03;53.34;101322.09;5165373;28;20061;-78
2022/08/28 04:41:54;;;;;;;3.72;1.08;;;;;;;18.02;53.41;101320.38;5181628;28;20438;-80
2022/08/28 04:44:24;;;;;;;2.22;0.52;;;;;;;17.99;53.37;101320.53;5154565;28;20046;-78
2022/08/28 04:46:55;;;;;;;0.25;0.25;;;;;;;17.98;53.38;101324.09;5169554;28;20107;-80
2022/08/28 04:49:26;;;;;;;0.25;0.25;;;;;;;17.91;53.41;101324.38;5161533;28;20052;-78
2022/08/28 04:51:57;;;;;;;10.85;1.40;;;;;;;17.89;53.14;101320.09;5167948;28;20022;-77
2022/08/28 04:54:27;;;;;;;1.55;0.95;;;;;;;17.83;54.04;101326.53;5172902;28;20310;-78
2022/08/28 04:56:58;;;;;;;0.82;0.82;;;;;;;17.85;53.33;101329.16;5174972;28;20067;-78
2022/08/28 04:59:29;;;;;;;2.33;0.80;;;;;;;17.80;54.51;101325.84;5133780;28;20053;-78
2022/08/28 05:01:59;;;;;;;0.43;0.40;;;;;;;17.75;54.25;101326.06;5184723;28;20093;-77
2022/08/28 05:04:30;;;;;;;0.30;0.30;;;;;;;17.77;53.36;101327.69;5174947;28;20038;-78
2022/08/28 05:07:01;;;;;;;2.83;0.40;;;;;;;17.74;53.91;101332.28;5159156;28;20034;-79
2022/08/28 05:09:34;;;;;;;0.30;0.30;;;;;;;17.74;53.76;101333.16;5144241;28;20073;-79
2022/08/28 05:12:05;;;;;;;0.77;0.77;;;;;;;17.70;54.18;101336.88;5174920;28;20034;-78
2022/08/28 05:14:36;;;;;;;1.33;1.33;;;;;;;17.70;54.44;101328.06;5169463;28;20150;-79
2022/08/28 05:17:10;;;;;;;12.55;0.82;;;;;;;17.75;54.12;101331.34;5173441;28;20022;-79
2022/08/28 05:19:42;;;;;;;0.40;0.40;;;;;;;17.69;53.88;101334.31;5137614;28;20068;-79
2022/08/28 05:22:13;;;;;;;1.35;1.20;;;;;;;17.69;54.90;101339.63;5189563;28;20028;-79
2022/08/28 05:24:43;;;;;;;2.60;0.55;;;;;;;17.69;54.41;101344.94;5163421;28;20121;-79
2022/08/28 05:27:14;;;;;;;18.65;2.10;;;;;;;17.61;55.56;101354.09;5175502;28;20030;-79
2022/08/28 05:29:45;;;;;;;2.13;0.93;;;;;;;17.62;54.56;101349.66;5170953;28;20034;-77
2022/08/28 05:32:16;;;;;;;3.15;0.82;;;;;;;17.61;54.89;101348.81;5161640;28;20030;-79
2022/08/28 05:34:47;;;;;;;0.68;0.68;;;;;;;17.62;54.69;101355.84;5194699;28;20026;-78
2022/08/28 05:37:18;;;;;;;0.30;0.30;;;;;;;17.64;55.21;101362.88;5163939;28;20450;-79
2022/08/28 05:39:48;;;;;;;0.70;0.70;;;;;;;17.68;54.04;101357.34;5178655;28;20034;-79
2022/08/28 05:42:19;;;;;;;0.35;0.35;;;;;;;17.69;54.81;101350.22;5161222;28;20025;-79
2022/08/28 05:44:49;;;;;;;0.50;0.50;;;;;;;17.67;55.01;101355.63;5174540;28;20025;-78
2022/08/28 05:47:20;;;;;;;0.20;0.20;;;;;;;17.68;55.20;101354.69;5167696;28;20114;-78
2022/08/28 05:49:51;;;;;;;2.65;1.05;;;;;;;17.68;56.74;101360.00;5155914;28;20034;-79
2022/08/28 05:52:22;;;;;;;0.30;0.30;;;;;;;17.70;55.29;101363.41;5181840;28;20037;-79
2022/08/28 05:54:52;;;;;;;1.85;1.15;;;;;;;17.71;55.35;101369.59;5179006;28;20188;-79
2022/08/28 05:57:23;;;;;;;0.75;0.47;;;;;;;17.71;55.89;101361.66;5183184;28;20089;-79
2022/08/28 05:59:53;;;;;;;0.55;0.55;;;;;;;17.75;55.34;101369.41;5177132;28;20046;-78
2022/08/28 06:02:26;;;;;;;13.30;1.88;;;;;;;17.77;55.24;101378.13;5176098;28;20069;-78
2022/08/28 06:04:56;;;;;;;6.97;1.23;;;;;;;17.74;56.00;101374.75;5154807;28;20042;-78
2022/08/28 06:07:27;;;;;;;1.13;1.02;;;;;;;17.83;55.67;101374.31;5179054;28;20498;-78
2022/08/28 06:09:58;;;;;;;0.35;0.35;;;;;;;17.83;54.90;101369.00;5162457;28;20037;-77
2022/08/28 06:12:28;;;;;;;0.55;0.55;;;;;;;17.78;56.63;101366.56;5152564;28;20033;-78
2022/08/28 06:14:59;;;;;;;0.30;0.30;;;;;;;17.83;56.00;101374.31;5172356;28;20040;-78
2022/08/28 06:17:30;;;;;;;0.55;0.55;;;;;;;17.85;56.29;101372.47;5161277;28;20029;-77
2022/08/28 06:20:01;;;;;;;0.85;0.55;;;;;;;17.85;55.99;101382.22;5181192;28;20093;-78
2022/08/28 06:22:31;;;;;;;0.68;0.68;;;;;;;17.88;56.17;101380.28;5179438;28;20026;-78
2022/08/28 06:25:06;;;;;;;0.40;0.40;;;;;;;17.98;55.69;101382.50;5156329;28;20030;-79
2022/08/28 06:27:41;;;;;;;1.30;0.77;;;;;;;17.91;56.57;101385.44;5156202;28;20042;-79
2022/08/28 06:30:12;;;;;;;0.77;0.77;;;;;;;17.99;55.83;101389.56;5149562;28;20030;-78
2022/08/28 06:32:43;;;;;;;2.17;1.20;;;;;;;17.97;55.84;101391.44;5179659;28;20303;-78
2022/08/28 06:35:13;;;;;;;1.38;1.00;;;;;;;18.04;55.44;101392.88;5155553;28;20526;-78
2022/08/28 06:37:44;;;;;;;7.90;2.15;;;;;;;17.99;55.81;101392.19;5167090;28;20042;-78
2022/08/28 06:40:15;;;;;;;0.32;0.30;;;;;;;18.01;55.93;101399.19;5160139;28;20026;-79
2022/08/28 06:42:45;;;;;;;0.32;0.32;;;;;;;18.08;55.69;101392.66;5185825;28;20773;-80
2022/08/28 06:45:23;;;;;;;0.25;0.25;;;;;;;18.17;55.20;101395.78;5160418;28;20024;-79
2022/08/28 06:47:54;;;;;;;0.20;0.20;;;;;;;18.12;55.40;101396.00;5150503;28;20046;-78
2022/08/28 06:50:24;;;;;;;0.45;0.45;;;;;;;18.14;55.71;101403.91;5165753;28;20033;-79
2022/08/28 06:52:55;;;;;;;0.90;0.75;;;;;;;18.14;56.09;101399.44;5164699;28;20037;-79
2022/08/28 06:55:26;;;;;;;0.63;0.63;;;;;;;18.12;55.54;101401.31;5151279;28;20038;-78
2022/08/28 06:57:56;;;;;;;0.40;0.40;;;;;;;18.08;55.88;101407.69;5176832;28;20022;-78
2022/08/28 07:00:27;;;;;;;0.40;0.40;;;;;;;18.15;55.52;101400.31;5154053;28;20030;-78
2022/08/28 07:02:58;;;;;;;0.40;0.40;;;;;;;18.18;55.30;101401.03;5191778;28;20042;-78
2022/08/28 07:05:29;;;;;;;0.57;0.57;;;;;;;18.21;55.56;101403.53;5181084;28;20045;-79
2022/08/28 07:07:59;;;;;;;0.55;0.55;;;;;;;18.24;55.53;101400.72;5180321;28;20042;-78
2022/08/28 07:10:30;;;;;;;0.63;0.63;;;;;;;18.28;55.42;101406.75;5131562;28;20032;-78
2022/08/28 07:13:10;;;;;;;0.50;0.43;;;;;;;18.28;55.46;101406.75;5145223;28;20707;-79
2022/08/28 07:15:41;;;;;;;0.55;0.55;;;;;;;18.31;55.61;101416.34;5166895;28;20112;-79
2022/08/28 07:18:12;;;;;;;1.30;1.20;;;;;;;18.34;55.35;101410.91;5176387;28;20048;-79
2022/08/28 07:20:44;;;;;;;1.98;1.15;;;;;;;18.31;55.42;101414.56;5150765;28;20120;-78
2022/08/28 07:23:14;;;;;;;1.23;1.15;;;;;;;18.34;55.63;101411.78;5142702;28;20049;-80
2022/08/28 07:25:45;;;;;;;0.75;0.40;;;;;;;18.38;55.25;101413.31;5170397;28;21019;-78
2022/08/28 07:28:16;;;;;;;0.35;0.35;;;;;;;18.37;54.98;101416.91;5162297;28;20057;-78
2022/08/28 07:31:18;;;;;;;0.50;0.40;;;;;;;18.48;55.16;101418.19;5177254;28;20018;-79
2022/08/28 07:33:49;;;;;;;0.52;0.52;;;;;;;18.48;55.31;101419.03;5148799;28;20427;-79
2022/08/28 07:36:23;;;;;;;2.45;0.65;;;;;;;18.50;54.94;101422.50;5180987;28;20041;-80
2022/08/28 07:38:55;;;;;;;1.65;1.23;;;;;;;18.57;54.84;101425.72;5162586;28;20038;-80
2022/08/28 07:41:31;;;;;;;1.08;0.73;;;;;;;18.54;55.11;101425.84;5166676;28;20104;-80
2022/08/28 07:46:59;;;;;;;0.20;0.20;;;;;;;18.55;55.14;101432.91;5168787;28;21261;-79
2022/08/28 07:49:32;;;;;;;0.30;0.30;;;;;;;18.51;55.48;101431.34;5166491;28;20800;-80
2022/08/28 07:52:11;;;;;;;0.25;0.25;;;;;;;18.52;55.21;101433.91;5147832;28;20045;-79
2022/08/28 07:54:41;;;;;;;0.40;0.40;;;;;;;18.61;55.15;101440.56;5140735;28;20489;-80
2022/08/28 07:57:12;;;;;;;0.40;0.40;;;;;;;18.64;54.76;101434.22;5160634;28;20125;-79
2022/08/28 07:59:43;;;;;;;0.30;0.30;;;;;;;18.68;54.85;101435.81;5159091;28;20034;-80
2022/08/28 08:02:15;;;;;;;0.60;0.57;;;;;;;18.69;55.26;101437.53;5151618;28;20216;-79
2022/08/28 08:04:46;;;;;;;1.10;0.68;;;;;;;18.69;55.17;101437.53;5148345;28;20038;-80
2022/08/28 08:07:19;;;;;;;0.32;0.32;;;;;;;18.74;54.91;101435.50;5159869;28;20052;-81
2022/08/28 08:09:49;;;;;;;;;;;;;;;18.71;55.04;101440.97;5177847;28;20029;-81
2022/08/28 08:12:21;;;;;;;5.22;2.47;;;;;;;18.69;54.84;101433.06;5174348;28;19948;-81
2022/08/28 08:14:55;;;;;;;0.35;0.35;;;;;;;18.77;54.63;101435.34;5163806;28;20041;-80
2022/08/28 08:17:25;;;;;;;0.20;0.20;;;;;;;18.75;54.65;101439.03;5166683;28;21014;-80
2022/08/28 08:19:56;;;;;;;0.63;0.63;;;;;;;18.88;54.13;101433.00;5190224;28;20053;-80
2022/08/28 08:22:26;;;;;;;0.40;0.40;;;;;;;18.82;54.65;101438.63;5165604;28;20033;-80
2022/08/28 08:24:57;;;;;;;0.55;0.55;;;;;;;18.88;54.71;101437.47;5144237;28;20049;-79
2022/08/28 08:27:28;;;;;;;0.68;0.65;;;;;;;18.85;54.66;101437.59;5178917;28;20026;-80
2022/08/28 08:29:59;;;;;;;0.98;0.40;;;;;;;18.94;54.23;101441.63;5172235;28;20072;-78
2022/08/28 08:32:29;;;;;;;0.40;0.40;;;;;;;18.97;54.18;101438.81;5167516;28;20034;-79
2022/08/28 08:35:03;;;;;;;0.30;0.30;;;;;;;19.03;53.91;101430.53;5135947;28;20017;-80
2022/08/28 08:37:33;;;;;;;0.30;0.30;;;;;;;18.99;53.58;101436.94;5146781;28;20151;-79
2022/08/28 08:40:14;;;;;;;0.25;0.25;;;;;;;18.98;53.69;101437.88;5177986;28;20030;-79
2022/08/28 08:42:48;;;;;;;0.20;0.20;;;;;;;19.00;53.75;101446.63;5152491;28;20049;-79
2022/08/28 08:45:23;;;;;;;1.35;1.13;;;;;;;19.02;53.82;101440.31;5171597;28;20125;-79
2022/08/28 08:47:55;;;;;;;0.98;0.98;;;;;;;19.07;53.34;101442.72;5176417;28;20566;-79
2022/08/28 08:50:30;;;;;;;0.50;0.50;;;;;;;19.09;52.97;101446.16;5160392;28;20056;-79
2022/08/28 08:53:01;;;;;;;1.05;0.88;;;;;;;19.06;53.14;101440.16;5173071;28;20096;-79
2022/08/28 08:55:43;;;;;;;1.00;0.68;;;;;;;19.07;53.11;101440.06;5147759;28;20045;-79
2022/08/28 08:58:46;;;;;;;0.40;0.40;;;;;;;19.10;52.57;101447.91;5172408;28;20038;-80
2022/08/28 09:01:36;;;;;;;0.43;0.43;;;;;;;19.13;52.44;101442.41;5143890;28;20042;-80
2022/08/28 09:04:13;;;;;;;0.63;0.50;;;;;;;19.11;52.84;101441.63;5164973;28;20048;-80
2022/08/28 09:06:51;;;;;;;0.98;0.73;;;;;;;19.17;52.71;101438.66;5143974;28;20625;-80
2022/08/28 09:09:34;;;;;;;1.10;1.10;;;;;;;19.15;52.99;101435.22;5149476;28;20188;-78
2022/08/28 09:12:07;;;;;;;0.80;0.73;;;;;;;19.19;52.58;101442.09;5165598;28;20045;-79
2022/08/28 09:15:08;;;;;;;0.40;0.40;;;;;;;19.32;52.16;101441.44;5174188;28;20057;-79
2022/08/28 09:17:46;;;;;;;2.70;0.88;;;;;;;19.35;51.96;101457.25;5191377;28;20038;-80
2022/08/28 09:20:28;;;;;;;8.07;0.65;;;;;;;19.31;52.47;101453.03;5160881;28;20386;-78
2022/08/28 09:22:59;;;;;;;0.75;0.75;;;;;;;19.29;52.35;101447.78;5164184;28;20029;-79
2022/08/28 09:25:50;;;;;;;3.00;2.03;;;;;;;19.31;52.42;101456.56;5176994;28;20036;-79
2022/08/28 09:28:31;;;;;;;2.30;0.77;;;;;;;19.33;52.10;101459.13;5134333;28;20107;-79
2022/08/28 09:31:06;;;;;;;0.68;0.68;;;;;;;19.39;51.99;101453.47;5171689;28;20033;-79
2022/08/28 09:33:40;;;;;;;0.70;0.70;;;;;;;19.29;51.83;101452.28;5138335;28;20041;-79
2022/08/28 09:36:30;;;;;;;2.25;0.82;;;;;;;19.35;51.98;101458.09;5177111;28;20433;-79
2022/08/28 09:39:06;;;;;;;2.58;1.17;;;;;;;19.45;51.98;101461.16;5133802;28;20457;-78
2022/08/28 09:44:52;;;;;;;0.30;0.30;;;;;;;19.43;51.78;101449.72;5154958;28;20077;-79
2022/08/28 09:47:35;;;;;;;0.40;0.40;;;;;;;19.50;51.69;101456.44;5187128;28;20064;-79
2022/08/28 09:50:18;;;;;;;0.25;0.25;;;;;;;19.54;51.35;101450.97;5159569;28;20045;-79
2022/08/28 09:52:50;;;;;;;0.75;0.75;;;;;;;19.53;51.37;101454.56;5150912;28;20671;-80
2022/08/28 09:55:45;;;;;;;0.30;0.30;;;;;;;19.55;51.53;101444.69;5165839;28;20030;-79
2022/08/28 09:58:16;;;;;;;0.40;0.40;;;;;;;19.54;50.95;101456.28;5161534;28;20564;-78
2022/08/28 10:00:57;;;;;;;0.47;0.47;;;;;;;19.66;50.77;101444.97;5165170;28;20063;-79
2022/08/28 10:03:35;;;;;;;0.73;0.70;;;;;;;19.60;51.17;101451.47;5179393;28;20046;-80
2022/08/28 10:06:14;;;;;;;3.50;0.50;;;;;;;19.61;51.26;101452.38;5181165;28;20049;-78
2022/08/28 10:08:53;;;;;;;2.83;0.55;;;;;;;19.70;51.17;101451.88;5145171;28;20041;-79
2022/08/28 10:11:43;;;;;;;0.73;0.43;;;;;;;19.77;50.75;101449.72;5175188;28;20022;-80
2022/08/28 10:14:13;;;;;;;0.30;0.30;;;;;;;19.77;50.94;101444.38;5152712;28;20060;-80
2022/08/28 10:16:49;;;;;;;0.20;0.20;;;;;;;19.77;50.57;101444.38;5182899;28;20034;-78
2022/08/28 10:19:35;;;;;;;0.57;0.57;;;;;;;19.82;50.01;101442.34;5185542;28;20040;-79
2022/08/28 10:22:52;;;;;;;8.10;0.73;;;;;;;19.86;49.99;101449.25;5189719;28;20037;-79
2022/08/28 10:25:41;;;;;;;0.55;0.55;;;;;;;19.94;49.80;101459.50;5143881;28;20034;-79
2022/08/28 10:28:33;;;;;;;0.85;0.50;;;;;;;20.02;50.09;101454.59;5151210;28;20037;-78
2022/08/28 10:31:20;;;;;;;0.30;0.30;;;;;;;20.01;50.16;101449.34;5179416;28;20459;-78
2022/08/28 10:33:51;;;;;;;0.43;0.43;;;;;;;20.01;49.41;101439.56;5161701;28;20116;-79
2022/08/28 10:36:27;;;;;;;0.60;0.60;;;;;;;20.10;49.72;101443.50;5139123;28;20295;-79
2022/08/28 10:39:22;;;;;;;1.63;0.73;;;;;;;20.10;49.27;101454.16;5148338;28;20799;-79
2022/08/28 10:42:03;;;;;;;1.75;1.55;;;;;;;20.15;49.64;101445.91;5148282;28;20037;-79
2022/08/28 10:44:47;;;;;;;0.77;0.77;;;;;;;20.27;48.77;101440.75;5172304;28;20234;-79
2022/08/28 10:47:20;;;;;;;0.20;0.20;;;;;;;20.26;48.84;101448.84;5151000;28;20290;-79
2022/08/28 10:50:00;;;;;;;1.17;1.00;;;;;;;20.33;48.99;101439.56;5153271;28;20491;-79
2022/08/28 10:52:43;;;;;;;0.20;0.20;;;;;;;20.27;48.59;101447.91;5164546;28;20081;-80
2022/08/28 10:55:25;;;;;;;0.38;0.38;;;;;;;20.30;48.42;101445.03;5181176;28;20993;-77
2022/08/28 10:58:08;;;;;;;3.13;0.63;;;;;;;20.28;48.02;101452.28;5179830;28;20038;-78
2022/08/28 11:00:42;;;;;;;0.35;0.35;;;;;;;20.34;48.04;101448.38;5140688;28;20320;-78
2022/08/28 11:03:16;;;;;;;0.28;0.28;;;;;;;20.40;48.56;101440.91;5187052;28;20132;-78
2022/08/28 11:06:07;;;;;;;0.20;0.20;;;;;;;20.55;47.20;101451.63;5182848;28;20037;-77
2022/08/28 11:08:38;;;;;;;1.20;0.65;;;;;;;20.50;47.32;101446.56;5146219;28;20404;-79
2022/08/28 11:11:13;;;;;;;0.30;0.30;;;;;;;20.62;46.22;101453.00;5153844;28;20121;-78
2022/08/28 11:13:57;;;;;;;0.60;0.60;;;;;;;20.68;47.05;101447.31;5148999;28;20049;-78
2022/08/28 11:16:28;;;;;;;0.70;0.57;;;;;;;20.62;47.45;101442.31;5169291;28;20106;-80
2022/08/28 11:19:09;;;;;;;0.43;0.43;;;;;;;20.63;46.96;101446.72;5156832;28;20133;-80
2022/08/28 11:22:03;;;;;;;0.40;0.40;;;;;;;20.79;46.99;101443.19;5160305;28;20093;-79
2022/08/28 11:24:43;;;;;;;1.95;1.15;;;;;;;20.75;47.25;101447.84;5177459;28;20498;-78
2022/08/28 11:27:25;;;;;;;0.40;0.40;;;;;;;20.80;45.59;101444.91;5155208;28;20048;-81
2022/08/28 11:30:27;;;;;;;0.40;0.40;;;;;;;20.92;46.91;101441.53;5178103;28;20041;-79
2022/08/28 11:33:01;;;;;;;0.50;0.50;;;;;;;20.89;46.74;101442.56;5176831;28;20422;-79
2022/08/28 11:35:34;;;;;;;0.30;0.30;;;;;;;20.95;46.67;101441.31;5167744;28;20484;-79
2022/08/28 11:38:09;;;;;;;1.50;1.35;;;;;;;20.95;46.93;101438.66;5165678;28;20034;-79
2022/08/28 11:40:53;;;;;;;0.20;0.20;;;;;;;21.12;46.77;101447.47;5197083;28;20161;-79
2022/08/28 11:43:34;;;;;;;0.50;0.50;;;;;;;21.07;46.03;101445.94;5182167;28;20042;-78
2022/08/28 11:46:11;;;;;;;0.47;0.47;;;;;;;21.16;46.34;101443.66;5172504;28;20084;-79
2022/08/28 11:48:54;;;;;;;0.60;0.60;;;;;;;21.22;45.66;101443.28;5180979;28;20053;-81
2022/08/28 11:51:46;;;;;;;0.63;0.57;;;;;;;21.25;46.31;101447.56;5166347;28;20513;-81
2022/08/28 11:54:20;;;;;;;0.73;0.30;;;;;;;21.32;46.83;101447.13;5154244;28;20042;-81
2022/08/28 11:57:17;;;;;;;3.25;0.73;;;;;;;21.41;45.74;101442.19;5177001;28;20058;-81
2022/08/28 12:00:16;;;;;;;0.35;0.35;;;;;;;21.46;47.19;101435.59;5177344;28;20091;-80
2022/08/28 12:03:06;;;;;;;3.20;1.40;;;;;;;21.57;46.35;101439.44;5162324;28;20423;-80
2022/08/28 12:05:40;;;;;;;0.82;0.45;;;;;;;21.66;44.88;101446.88;5182441;28;20049;-81
2022/08/28 12:08:33;;;;;;;1.05;0.95;;;;;;;21.69;44.98;101436.00;5165230;28;20034;-81
2022/08/28 12:11:03;;;;;;;0.30;0.30;;;;;;;21.83;45.23;101430.63;5152319;28;20378;-79